Time,TemperatureF,DewpointF,PressureIn,WindDirection,WindDirectionDegrees,WindSpeedMPH,WindSpeedGustMPH,Humidity,HourlyPrecipIn,Conditions,Clouds,dailyrainin,SolarRadiationWatts/m^2,SoftwareType,DateUTC
2013-03-05 00:00:00,52.1,32.5,29.99,ENE,67,0.0,0.0,47,0.00,,,0.00,0,LWC V2.00 B727,2013-03-05 07:00:00,
2013-03-05 00:05:00,51.8,32.7,29.99,ENE,67,0.0,0.0,48,0.00,,,0.00,0,LWC V2.00 B727,2013-03-05 07:05:00,
2013-03-05 00:10:00,51.9,32.8,29.98,ENE,67,0.0,1.0,48,0.00,,,0.00,0,LWC V2.00 B727,2013-03-05 07:10:00,
2013-03-05 00:15:00,52.2,33.1,29.98,ENE,67,0.0,2.0,48,0.00,,,0.00,0,LWC V2.00 B727,2013-03-05 07:15:00,
2013-03-05 00:20:00,51.8,32.7,29.99,ENE,67,0.0,0.0,48,0.00,,,0.00,0,LWC V2.00 B727,2013-03-05 07:20:00,
2013-03-05 00:25:00,51.0,32.5,29.99,ENE,67,0.0,0.0,49,0.00,,,0.00,0,LWC V2.00 B727,2013-03-05 07:25:00,
2013-03-05 00:30:00,50.8,32.8,29.99,ENE,67,0.0,0.0,50,0.00,,,0.00,0,LWC V2.00 B727,2013-03-05 07:30:00,
2013-03-05 00:35:00,51.5,33.0,29.99,ENE,67,0.0,2.0,49,0.00,,,0.00,0,LWC V2.00 B727,2013-03-05 07:35:00,
2013-03-05 00:40:00,52.0,32.9,29.99,ENE,67,0.0,0.0,48,0.00,,,0.00,0,LWC V2.00 B727,2013-03-05 07:40:00,
2013-03-05 00:45:00,50.6,32.7,29.99,ENE,67,0.0,0.0,50,0.00,,,0.00,0,LWC V2.00 B727,2013-03-05 07:45:00,
2013-03-05 00:50:00,50.5,33.1,29.99,ENE,67,1.0,2.0,51,0.00,,,0.00,0,LWC V2.00 B727,2013-03-05 07:50:00,
2013-03-05 00:55:00,51.7,33.2,29.99,ENE,67,0.0,2.0,49,0.00,,,0.00,0,LWC V2.00 B727,2013-03-05 07:55:00,
2013-03-05 01:00:00,52.5,32.9,29.99,ENE,67,2.0,3.0,47,0.00,,,0.00,0,LWC V2.00 B727,2013-03-05 08:00:00,
2013-03-05 01:05:00,52.7,33.0,29.99,ENE,67,4.0,4.0,47,0.00,,,0.00,0,LWC V2.00 B727,2013-03-05 08:05:00,
2013-03-05 01:10:00,52.8,33.1,29.99,ENE,67,2.0,5.0,47,0.00,,,0.00,0,LWC V2.00 B727,2013-03-05 08:10:00,
2013-03-05 01:15:00,52.8,33.1,29.99,ENE,67,2.0,4.0,47,0.00,,,0.00,0,LWC V2.00 B727,2013-03-05 08:15:00,
2013-03-05 01:20:00,53.1,32.9,30.00,ENE,67,2.0,3.0,46,0.00,,,0.00,0,LWC V2.00 B727,2013-03-05 08:20:00,
2013-03-05 01:25:00,53.2,33.0,30.00,ENE,67,0.0,2.0,46,0.00,,,0.00,0,LWC V2.00 B727,2013-03-05 08:25:00,
2013-03-05 01:30:00,52.8,32.6,30.00,ENE,67,0.0,0.0,46,0.00,,,0.00,0,LWC V2.00 B727,2013-03-05 08:30:00,
2013-03-05 01:35:00,50.8,32.3,30.00,ENE,67,1.0,2.0,49,0.00,,,0.00,0,LWC V2.00 B727,2013-03-05 08:35:00,
2013-03-05 01:40:00,50.6,32.7,30.00,ENE,67,0.0,3.0,50,0.00,,,0.00,0,LWC V2.00 B727,2013-03-05 08:40:00,
2013-03-05 01:45:00,50.8,32.8,30.00,ENE,67,0.0,1.0,50,0.00,,,0.00,0,LWC V2.00 B727,2013-03-05 08:45:00,
2013-03-05 01:50:00,51.2,32.7,30.00,ENE,67,0.0,1.0,49,0.00,,,0.00,0,LWC V2.00 B727,2013-03-05 08:50:00,
2013-03-05 01:55:00,51.2,32.7,30.00,ENE,67,0.0,1.0,49,0.00,,,0.00,0,LWC V2.00 B727,2013-03-05 08:55:00,
2013-03-05 02:00:00,50.6,32.7,30.00,ENE,67,0.0,0.0,50,0.00,,,0.00,0,LWC V2.00 B727,2013-03-05 09:00:00,
2013-03-05 02:05:00,51.0,32.5,30.00,ENE,67,0.0,0.0,49,0.00,,,0.00,0,LWC V2.00 B727,2013-03-05 09:05:00,
2013-03-05 02:10:00,51.7,32.6,30.00,ENE,67,0.0,0.0,48,0.00,,,0.00,0,LWC V2.00 B727,2013-03-05 09:10:00,
2013-03-05 02:15:00,51.0,32.5,30.00,ENE,67,0.0,0.0,49,0.00,,,0.00,0,LWC V2.00 B727,2013-03-05 09:15:00,
2013-03-05 02:20:00,50.5,32.1,30.00,ENE,67,0.0,0.0,49,0.00,,,0.00,0,LWC V2.00 B727,2013-03-05 09:20:00,
2013-03-05 02:25:00,51.2,32.7,29.99,ENE,67,0.0,1.0,49,0.00,,,0.00,0,LWC V2.00 B727,2013-03-05 09:25:00,
2013-03-05 02:30:00,51.3,32.3,29.99,ENE,67,0.0,0.0,48,0.00,,,0.00,0,LWC V2.00 B727,2013-03-05 09:30:00,
2013-03-05 02:35:00,50.7,32.2,29.99,ENE,67,0.0,0.0,49,0.00,,,0.00,0,LWC V2.00 B727,2013-03-05 09:35:00,
2013-03-05 02:40:00,50.4,32.0,29.99,ENE,67,2.0,2.0,49,0.00,,,0.00,0,LWC V2.00 B727,2013-03-05 09:40:00,
2013-03-05 02:45:00,50.6,32.2,29.98,ENE,67,0.0,0.0,49,0.00,,,0.00,0,LWC V2.00 B727,2013-03-05 09:45:00,
2013-03-05 02:50:00,50.9,32.4,29.99,ENE,67,0.0,0.0,49,0.00,,,0.00,0,LWC V2.00 B727,2013-03-05 09:50:00,
2013-03-05 02:55:00,51.3,32.3,29.98,ENE,67,0.0,0.0,48,0.00,,,0.00,0,LWC V2.00 B727,2013-03-05 09:55:00,
2013-03-05 03:00:00,50.3,31.9,29.98,ENE,67,0.0,0.0,49,0.00,,,0.00,0,LWC V2.00 B727,2013-03-05 10:00:00,
2013-03-05 03:05:00,49.7,31.8,29.98,ENE,67,0.0,2.0,50,0.00,,,0.00,0,LWC V2.00 B727,2013-03-05 10:05:00,
2013-03-05 03:10:00,50.5,32.1,29.98,ENE,67,0.0,0.0,49,0.00,,,0.00,0,LWC V2.00 B727,2013-03-05 10:10:00,
2013-03-05 03:15:00,51.0,31.5,29.98,ENE,67,0.0,0.0,47,0.00,,,0.00,0,LWC V2.00 B727,2013-03-05 10:15:00,
2013-03-05 03:20:00,52.0,31.9,29.98,ENE,67,0.0,0.0,46,0.00,,,0.00,0,LWC V2.00 B727,2013-03-05 10:20:00,
2013-03-05 03:25:00,50.2,31.8,29.98,ENE,67,0.0,1.0,49,0.00,,,0.00,0,LWC V2.00 B727,2013-03-05 10:25:00,
2013-03-05 03:30:00,49.5,31.6,29.98,ENE,67,0.0,0.0,50,0.00,,,0.00,0,LWC V2.00 B727,2013-03-05 10:30:00,
2013-03-05 03:35:00,49.4,31.5,29.99,ENE,67,0.0,0.0,50,0.00,,,0.00,0,LWC V2.00 B727,2013-03-05 10:35:00,
2013-03-05 03:40:00,48.8,31.5,29.99,ENE,67,0.0,0.0,51,0.00,,,0.00,0,LWC V2.00 B727,2013-03-05 10:40:00,
2013-03-05 03:45:00,47.3,31.5,29.99,ENE,67,0.0,0.0,54,0.00,,,0.00,0,LWC V2.00 B727,2013-03-05 10:45:00,
2013-03-05 03:50:00,46.5,31.7,29.99,ENE,67,0.0,0.0,56,0.00,,,0.00,0,LWC V2.00 B727,2013-03-05 10:50:00,
2013-03-05 03:55:00,46.8,31.9,29.99,ENE,67,0.0,0.0,56,0.00,,,0.00,0,LWC V2.00 B727,2013-03-05 10:55:00,
2013-03-05 04:00:00,47.1,31.8,29.99,ENE,67,0.0,1.0,55,0.00,,,0.00,0,LWC V2.00 B727,2013-03-05 11:00:00,
2013-03-05 04:05:00,46.8,31.9,29.99,ENE,67,2.0,3.0,56,0.00,,,0.00,0,LWC V2.00 B727,2013-03-05 11:05:00,
2013-03-05 04:10:00,46.9,32.0,29.99,ENE,67,4.0,4.0,56,0.00,,,0.00,0,LWC V2.00 B727,2013-03-05 11:10:00,
2013-03-05 04:15:00,46.8,32.4,29.99,East,81,0.0,3.0,57,0.00,,,0.00,0,LWC V2.00 B727,2013-03-05 11:15:00,
2013-03-05 04:20:00,46.7,32.3,29.99,East,81,0.0,0.0,57,0.00,,,0.00,0,LWC V2.00 B727,2013-03-05 11:20:00,
2013-03-05 04:25:00,47.6,32.2,29.99,East,81,0.0,2.0,55,0.00,,,0.00,0,LWC V2.00 B727,2013-03-05 11:25:00,
2013-03-05 04:30:00,48.4,32.5,29.99,East,81,0.0,1.0,54,0.00,,,0.00,0,LWC V2.00 B727,2013-03-05 11:30:00,
2013-03-05 04:35:00,49.2,32.3,29.99,East,81,0.0,1.0,52,0.00,,,0.00,0,LWC V2.00 B727,2013-03-05 11:35:00,
2013-03-05 04:40:00,49.4,32.0,29.99,East,81,1.0,2.0,51,0.00,,,0.00,0,LWC V2.00 B727,2013-03-05 11:40:00,
2013-03-05 04:45:00,49.1,32.2,29.99,East,81,1.0,3.0,52,0.00,,,0.00,0,LWC V2.00 B727,2013-03-05 11:45:00,
2013-03-05 04:50:00,49.0,32.1,29.99,East,81,0.0,2.0,52,0.00,,,0.00,0,LWC V2.00 B727,2013-03-05 11:50:00,
2013-03-05 04:55:00,49.2,32.3,29.99,East,81,2.0,3.0,52,0.00,,,0.00,0,LWC V2.00 B727,2013-03-05 11:55:00,
2013-03-05 05:00:00,50.0,32.1,29.99,East,81,0.0,2.0,50,0.00,,,0.00,0,LWC V2.00 B727,2013-03-05 12:00:00,
2013-03-05 05:05:00,50.3,31.4,29.99,East,81,1.0,3.0,48,0.00,,,0.00,0,LWC V2.00 B727,2013-03-05 12:05:00,
2013-03-05 05:10:00,50.4,31.5,30.00,East,81,1.0,2.0,48,0.00,,,0.00,0,LWC V2.00 B727,2013-03-05 12:10:00,
2013-03-05 05:15:00,50.4,31.5,30.00,East,81,0.0,0.0,48,0.00,,,0.00,0,LWC V2.00 B727,2013-03-05 12:15:00,
2013-03-05 05:20:00,50.2,31.8,30.00,ENE,77,2.0,6.0,49,0.00,,,0.00,0,LWC V2.00 B727,2013-03-05 12:20:00,
2013-03-05 05:25:00,49.9,31.5,30.00,ENE,68,4.0,4.0,49,0.00,,,0.00,0,LWC V2.00 B727,2013-03-05 12:25:00,
2013-03-05 05:30:00,49.6,31.7,30.00,ENE,67,2.0,4.0,50,0.00,,,0.00,0,LWC V2.00 B727,2013-03-05 12:30:00,
2013-03-05 05:35:00,49.5,31.6,30.00,ENE,67,1.0,2.0,50,0.00,,,0.00,0,LWC V2.00 B727,2013-03-05 12:35:00,
2013-03-05 05:40:00,50.0,31.6,30.00,ENE,67,2.0,2.0,49,0.00,,,0.00,0,LWC V2.00 B727,2013-03-05 12:40:00,
2013-03-05 05:45:00,50.6,31.6,30.00,ENE,67,4.0,4.0,48,0.00,,,0.00,0,LWC V2.00 B727,2013-03-05 12:45:00,
2013-03-05 05:50:00,50.1,31.7,30.00,ENE,67,3.0,4.0,49,0.00,,,0.00,0,LWC V2.00 B727,2013-03-05 12:50:00,
2013-03-05 05:55:00,49.5,31.6,30.00,ENE,67,2.0,4.0,50,0.00,,,0.00,0,LWC V2.00 B727,2013-03-05 12:55:00,
2013-03-05 06:00:00,49.4,31.5,30.00,ENE,67,0.0,2.0,50,0.00,,,0.00,0,LWC V2.00 B727,2013-03-05 13:00:00,
2013-03-05 06:05:00,49.4,31.5,30.00,ENE,67,0.0,0.0,50,0.00,,,0.00,0,LWC V2.00 B727,2013-03-05 13:05:00,
2013-03-05 06:10:00,49.0,31.2,30.00,ENE,67,0.0,0.0,50,0.00,,,0.00,0,LWC V2.00 B727,2013-03-05 13:10:00,
2013-03-05 06:15:00,48.6,31.3,30.00,ENE,67,3.0,3.0,51,0.00,,,0.00,0,LWC V2.00 B727,2013-03-05 13:15:00,
2013-03-05 06:20:00,48.6,31.8,30.00,ENE,67,2.0,2.0,52,0.00,,,0.00,0,LWC V2.00 B727,2013-03-05 13:20:00,
2013-03-05 06:25:00,48.5,31.2,30.00,ENE,67,4.0,4.0,51,0.00,,,0.00,0,LWC V2.00 B727,2013-03-05 13:25:00,
2013-03-05 06:30:00,48.4,31.1,30.00,ENE,67,4.0,4.0,51,0.00,,,0.00,0,LWC V2.00 B727,2013-03-05 13:30:00,
2013-03-05 06:35:00,48.5,31.2,30.00,ENE,68,3.0,5.0,51,0.00,,,0.00,0,LWC V2.00 B727,2013-03-05 13:35:00,
2013-03-05 06:40:00,48.5,31.2,30.00,ENE,68,1.0,1.0,51,0.00,,,0.00,0,LWC V2.00 B727,2013-03-05 13:40:00,
2013-03-05 06:45:00,47.4,30.7,30.00,ENE,68,0.0,0.0,52,0.00,,,0.00,7,LWC V2.00 B727,2013-03-05 13:45:00,
2013-03-05 06:50:00,46.1,30.8,30.00,ENE,68,0.0,0.0,55,0.00,,,0.00,12,LWC V2.00 B727,2013-03-05 13:50:00,
2013-03-05 06:55:00,46.2,30.9,30.00,ENE,68,0.0,0.0,55,0.00,,,0.00,21,LWC V2.00 B727,2013-03-05 13:55:00,
2013-03-05 07:00:00,45.8,31.0,30.00,ENE,68,0.0,0.0,56,0.00,,,0.00,26,LWC V2.00 B727,2013-03-05 14:00:00,
2013-03-05 07:02:00,45.8,31.0,30.00,ENE,68,0.0,0.0,56,0.00,,,0.00,32,LWC V2.00 B727,2013-03-05 14:02:00,
2013-03-05 07:07:00,45.4,31.1,30.00,ENE,68,0.0,0.0,57,0.00,,,0.00,40,LWC V2.00 B727,2013-03-05 14:07:00,
2013-03-05 07:12:00,45.9,31.1,30.01,ENE,68,0.0,0.0,56,0.00,,,0.00,44,LWC V2.00 B727,2013-03-05 14:12:00,
2013-03-05 07:17:00,47.3,31.0,30.01,ENE,68,0.0,0.0,53,0.00,,,0.00,44,LWC V2.00 B727,2013-03-05 14:17:00,
2013-03-05 07:22:00,48.2,30.9,30.01,ENE,68,0.0,0.0,51,0.00,,,0.00,39,LWC V2.00 B727,2013-03-05 14:22:00,
2013-03-05 07:27:00,47.2,31.0,30.00,ENE,68,0.0,0.0,53,0.00,,,0.00,40,LWC V2.00 B727,2013-03-05 14:27:00,
2013-03-05 07:32:00,47.8,31.0,30.00,ENE,68,0.0,0.0,52,0.00,,,0.00,42,LWC V2.00 B727,2013-03-05 14:32:00,
2013-03-05 07:37:00,48.5,31.2,30.01,ENE,68,0.0,0.0,51,0.00,,,0.00,51,LWC V2.00 B727,2013-03-05 14:37:00,
2013-03-05 07:42:00,48.6,31.3,30.01,ENE,68,0.0,0.0,51,0.00,,,0.00,63,LWC V2.00 B727,2013-03-05 14:42:00,
2013-03-05 07:47:00,49.2,30.9,30.01,ENE,68,0.0,0.0,49,0.00,,,0.00,183,LWC V2.00 B727,2013-03-05 14:47:00,
2013-03-05 07:52:00,50.1,31.7,30.01,ENE,68,0.0,0.0,49,0.00,,,0.00,162,LWC V2.00 B727,2013-03-05 14:52:00,
2013-03-05 07:57:00,50.8,31.8,30.02,ENE,68,0.0,0.0,48,0.00,,,0.00,241,LWC V2.00 B727,2013-03-05 14:57:00,
2013-03-05 08:02:00,52.6,31.9,30.02,ENE,68,0.0,0.0,45,0.00,,,0.00,160,LWC V2.00 B727,2013-03-05 15:02:00,
2013-03-05 08:07:00,53.1,32.3,30.02,ENE,68,0.0,0.0,45,0.00,,,0.00,192,LWC V2.00 B727,2013-03-05 15:07:00,
2013-03-05 08:12:00,53.1,32.9,30.02,ENE,68,0.0,0.0,46,0.00,,,0.00,211,LWC V2.00 B727,2013-03-05 15:12:00,
2013-03-05 08:17:00,52.5,34.4,30.03,ENE,68,0.0,0.0,50,0.00,,,0.00,283,LWC V2.00 B727,2013-03-05 15:17:00,
2013-03-05 08:22:00,51.3,34.3,30.04,ENE,68,0.0,0.0,52,0.00,,,0.00,134,LWC V2.00 B727,2013-03-05 15:22:00,
2013-03-05 08:27:00,50.8,34.3,30.03,ENE,68,0.0,0.0,53,0.00,,,0.00,141,LWC V2.00 B727,2013-03-05 15:27:00,
2013-03-05 08:32:00,52.0,34.9,30.03,ENE,68,0.0,0.0,52,0.00,,,0.00,204,LWC V2.00 B727,2013-03-05 15:32:00,
2013-03-05 08:37:00,53.5,35.8,30.04,ENE,68,0.0,1.0,51,0.00,,,0.00,281,LWC V2.00 B727,2013-03-05 15:37:00,
2013-03-05 08:42:00,56.2,35.7,30.04,ENE,68,0.0,0.0,46,0.00,,,0.00,371,LWC V2.00 B727,2013-03-05 15:42:00,
2013-03-05 08:47:00,55.6,34.0,30.04,ENE,68,0.0,0.0,44,0.00,,,0.00,397,LWC V2.00 B727,2013-03-05 15:47:00,
2013-03-05 08:52:00,54.5,33.6,30.04,ENE,68,0.0,3.0,45,0.00,,,0.00,408,LWC V2.00 B727,2013-03-05 15:52:00,
2013-03-05 08:57:00,54.8,35.0,30.05,ENE,68,0.0,0.0,47,0.00,,,0.00,436,LWC V2.00 B727,2013-03-05 15:57:00,
2013-03-05 09:02:00,56.8,35.1,30.05,ENE,68,0.0,0.0,44,0.00,,,0.00,450,LWC V2.00 B727,2013-03-05 16:02:00,
2013-03-05 09:07:00,58.3,34.1,30.05,ENE,68,0.0,1.0,40,0.00,,,0.00,478,LWC V2.00 B727,2013-03-05 16:07:00,
2013-03-05 09:12:00,58.9,35.8,30.05,ENE,68,0.0,1.0,42,0.00,,,0.00,489,LWC V2.00 B727,2013-03-05 16:12:00,
2013-03-05 09:17:00,58.8,35.2,30.05,ENE,68,0.0,1.0,41,0.00,,,0.00,499,LWC V2.00 B727,2013-03-05 16:17:00,
2013-03-05 09:22:00,59.6,34.6,30.04,ENE,68,0.0,0.0,39,0.00,,,0.00,515,LWC V2.00 B727,2013-03-05 16:22:00,
2013-03-05 09:27:00,60.9,32.3,30.05,ENE,68,0.0,1.0,34,0.00,,,0.00,529,LWC V2.00 B727,2013-03-05 16:27:00,
2013-03-05 09:32:00,61.7,33.0,30.05,ENE,68,0.0,1.0,34,0.00,,,0.00,552,LWC V2.00 B727,2013-03-05 16:32:00,
2013-03-05 09:37:00,63.0,32.7,30.05,ENE,68,0.0,1.0,32,0.00,,,0.00,578,LWC V2.00 B727,2013-03-05 16:37:00,
2013-03-05 09:42:00,63.2,32.1,30.05,ENE,68,0.0,0.0,31,0.00,,,0.00,563,LWC V2.00 B727,2013-03-05 16:42:00,
2013-03-05 09:47:00,63.1,32.8,30.05,ENE,68,0.0,1.0,32,0.00,,,0.00,668,LWC V2.00 B727,2013-03-05 16:47:00,
2013-03-05 09:52:00,63.3,31.3,30.05,ENE,68,0.0,1.0,30,0.00,,,0.00,345,LWC V2.00 B727,2013-03-05 16:52:00,
2013-03-05 09:57:00,64.0,32.8,30.04,ENE,68,0.0,1.0,31,0.00,,,0.00,315,LWC V2.00 B727,2013-03-05 16:57:00,
2013-03-05 10:02:00,63.9,32.7,30.04,ENE,68,0.0,0.0,31,0.00,,,0.00,360,LWC V2.00 B727,2013-03-05 17:02:00,
2013-03-05 10:07:00,64.0,31.1,30.04,ENE,68,0.0,3.0,29,0.00,,,0.00,468,LWC V2.00 B727,2013-03-05 17:07:00,
2013-03-05 10:12:00,64.4,32.3,30.05,ENE,68,0.0,1.0,30,0.00,,,0.00,571,LWC V2.00 B727,2013-03-05 17:12:00,
2013-03-05 10:17:00,65.1,30.3,30.04,ENE,68,0.0,0.0,27,0.00,,,0.00,724,LWC V2.00 B727,2013-03-05 17:17:00,
2013-03-05 10:22:00,64.9,30.1,30.04,NE,50,3.0,3.0,27,0.00,,,0.00,603,LWC V2.00 B727,2013-03-05 17:22:00,
2013-03-05 10:27:00,64.7,31.7,30.04,North,5,1.0,4.0,29,0.00,,,0.00,559,LWC V2.00 B727,2013-03-05 17:27:00,
2013-03-05 10:32:00,65.5,32.4,30.04,North,5,3.0,4.0,29,0.00,,,0.00,729,LWC V2.00 B727,2013-03-05 17:32:00,
2013-03-05 10:37:00,65.9,31.9,30.04,North,5,0.0,2.0,28,0.00,,,0.00,471,LWC V2.00 B727,2013-03-05 17:37:00,
2013-03-05 10:42:00,66.6,31.6,30.03,North,5,0.0,4.0,27,0.00,,,0.00,823,LWC V2.00 B727,2013-03-05 17:42:00,
2013-03-05 10:46:00,66.8,31.7,30.04,North,5,0.0,4.0,27,0.00,,,0.00,775,LWC V2.00 B727,2013-03-05 17:46:00,
2013-03-05 10:51:00,66.4,31.4,30.04,North,5,0.0,1.0,27,0.00,,,0.00,800,LWC V2.00 B727,2013-03-05 17:51:00,
2013-03-05 10:56:00,67.0,31.0,30.04,North,5,0.0,2.0,26,0.00,,,0.00,737,LWC V2.00 B727,2013-03-05 17:56:00,
2013-03-05 11:01:00,67.9,31.7,30.04,North,5,0.0,0.0,26,0.00,,,0.00,789,LWC V2.00 B727,2013-03-05 18:01:00,
2013-03-05 11:06:00,68.1,29.9,30.04,North,5,4.0,4.0,24,0.00,,,0.00,800,LWC V2.00 B727,2013-03-05 18:06:00,
2013-03-05 11:11:00,68.8,30.5,30.04,WSW,258,1.0,5.0,24,0.00,,,0.00,809,LWC V2.00 B727,2013-03-05 18:11:00,
2013-03-05 11:16:00,67.7,30.6,30.03,WNW,288,1.0,2.0,25,0.00,,,0.00,740,LWC V2.00 B727,2013-03-05 18:16:00,
2013-03-05 11:21:00,68.1,28.9,30.03,WSW,254,0.0,3.0,23,0.00,,,0.00,823,LWC V2.00 B727,2013-03-05 18:21:00,
2013-03-05 11:26:00,68.3,29.1,30.03,WSW,240,0.0,1.0,23,0.00,,,0.00,840,LWC V2.00 B727,2013-03-05 18:26:00,
2013-03-05 11:31:00,69.2,29.8,30.03,WSW,240,0.0,1.0,23,0.00,,,0.00,844,LWC V2.00 B727,2013-03-05 18:31:00,
2013-03-05 11:36:00,70.6,29.9,30.03,North,10,2.0,5.0,22,0.00,,,0.00,670,LWC V2.00 B727,2013-03-05 18:36:00,
2013-03-05 11:41:00,70.5,28.7,30.03,NW,322,3.0,3.0,21,0.00,,,0.00,796,LWC V2.00 B727,2013-03-05 18:41:00,
2013-03-05 11:46:00,70.4,28.6,30.02,West,275,0.0,3.0,21,0.00,,,0.00,865,LWC V2.00 B727,2013-03-05 18:46:00,
2013-03-05 11:51:00,70.0,29.4,30.02,West,273,2.0,2.0,22,0.00,,,0.00,742,LWC V2.00 B727,2013-03-05 18:51:00,
2013-03-05 11:56:00,70.8,30.1,30.02,WSW,238,0.0,1.0,22,0.00,,,0.00,828,LWC V2.00 B727,2013-03-05 18:56:00,
2013-03-05 12:01:00,71.3,29.3,30.02,WSW,238,0.0,1.0,21,0.00,,,0.00,766,LWC V2.00 B727,2013-03-05 19:01:00,
2013-03-05 12:06:00,71.3,29.3,30.02,WSW,238,3.0,5.0,21,0.00,,,0.00,809,LWC V2.00 B727,2013-03-05 19:06:00,
2013-03-05 12:11:00,70.8,28.9,30.01,WSW,242,2.0,3.0,21,0.00,,,0.00,798,LWC V2.00 B727,2013-03-05 19:11:00,
2013-03-05 12:16:00,70.4,27.4,30.01,NE,44,3.0,3.0,20,0.00,,,0.00,821,LWC V2.00 B727,2013-03-05 19:16:00,
2013-03-05 12:21:00,71.0,29.1,30.01,SW,234,0.0,5.0,21,0.00,,,0.00,958,LWC V2.00 B727,2013-03-05 19:21:00,
2013-03-05 12:26:00,71.4,29.4,30.00,West,271,3.0,5.0,21,0.00,,,0.00,937,LWC V2.00 B727,2013-03-05 19:26:00,
2013-03-05 12:31:00,72.6,29.2,30.00,NNW,339,0.0,7.0,20,0.00,,,0.00,853,LWC V2.00 B727,2013-03-05 19:31:00,
2013-03-05 12:36:00,73.1,28.4,30.00,NNW,330,2.0,4.0,19,0.00,,,0.00,904,LWC V2.00 B727,2013-03-05 19:36:00,
2013-03-05 12:41:00,72.1,27.6,30.00,WNW,299,2.0,2.0,19,0.00,,,0.00,737,LWC V2.00 B727,2013-03-05 19:41:00,
2013-03-05 12:46:00,73.2,28.5,29.99,WNW,299,0.0,3.0,19,0.00,,,0.00,814,LWC V2.00 B727,2013-03-05 19:46:00,
2013-03-05 12:51:00,72.9,28.2,29.99,West,274,0.0,4.0,19,0.00,,,0.00,737,LWC V2.00 B727,2013-03-05 19:51:00,
2013-03-05 12:56:00,72.6,28.0,29.99,WNW,284,0.0,1.0,19,0.00,,,0.00,503,LWC V2.00 B727,2013-03-05 19:56:00,
2013-03-05 13:01:00,72.2,28.9,29.98,NNE,13,0.0,2.0,20,0.00,,,0.00,434,LWC V2.00 B727,2013-03-05 20:01:00,
2013-03-05 13:06:00,72.2,28.9,29.98,NNE,13,0.0,4.0,20,0.00,,,0.00,373,LWC V2.00 B727,2013-03-05 20:06:00,
2013-03-05 13:11:00,71.3,28.2,29.97,North,0,1.0,2.0,20,0.00,,,0.00,615,LWC V2.00 B727,2013-03-05 20:11:00,
2013-03-05 13:16:00,71.9,29.8,29.97,North,355,0.0,0.0,21,0.00,,,0.00,896,LWC V2.00 B727,2013-03-05 20:16:00,
2013-03-05 13:21:00,73.4,28.6,29.97,WNW,284,2.0,7.0,19,0.00,,,0.00,979,LWC V2.00 B727,2013-03-05 20:21:00,
2013-03-05 13:26:00,73.8,27.6,29.97,West,271,1.0,4.0,18,0.00,,,0.00,902,LWC V2.00 B727,2013-03-05 20:26:00,
2013-03-05 13:31:00,72.8,26.8,29.97,SW,232,0.0,5.0,18,0.00,,,0.00,851,LWC V2.00 B727,2013-03-05 20:31:00,
2013-03-05 13:36:00,71.9,27.4,29.97,SSE,165,0.0,2.0,19,0.00,,,0.00,698,LWC V2.00 B727,2013-03-05 20:36:00,
2013-03-05 13:41:00,72.2,26.3,29.96,SSE,150,0.0,1.0,18,0.00,,,0.00,494,LWC V2.00 B727,2013-03-05 20:41:00,
2013-03-05 13:46:00,73.2,28.5,29.96,North,0,2.0,6.0,19,0.00,,,0.00,817,LWC V2.00 B727,2013-03-05 20:46:00,
2013-03-05 13:51:00,74.1,27.9,29.96,NNE,25,5.0,6.0,18,0.00,,,0.00,663,LWC V2.00 B727,2013-03-05 20:51:00,
2013-03-05 13:56:00,75.1,27.3,29.95,NNE,27,6.0,6.0,17,0.00,,,0.00,759,LWC V2.00 B727,2013-03-05 20:56:00,
2013-03-05 14:01:00,74.3,28.0,29.95,NNE,15,5.0,5.0,18,0.00,,,0.00,831,LWC V2.00 B727,2013-03-05 21:01:00,
2013-03-05 14:06:00,74.9,27.1,29.95,North,5,1.0,4.0,17,0.00,,,0.00,824,LWC V2.00 B727,2013-03-05 21:06:00,
2013-03-05 14:11:00,74.6,26.9,29.95,ENE,58,0.0,4.0,17,0.00,,,0.00,791,LWC V2.00 B727,2013-03-05 21:11:00,
2013-03-05 14:16:00,74.4,26.7,29.94,ENE,61,0.0,2.0,17,0.00,,,0.00,682,LWC V2.00 B727,2013-03-05 21:16:00,
2013-03-05 14:21:00,74.5,28.2,29.94,ENE,74,1.0,2.0,18,0.00,,,0.00,534,LWC V2.00 B727,2013-03-05 21:21:00,
2013-03-05 14:26:00,74.6,26.9,29.94,SSE,164,2.0,3.0,17,0.00,,,0.00,408,LWC V2.00 B727,2013-03-05 21:26:00,
2013-03-05 14:31:00,74.7,27.0,29.94,SSE,163,0.0,1.0,17,0.00,,,0.00,545,LWC V2.00 B727,2013-03-05 21:31:00,
2013-03-05 14:36:00,74.9,27.1,29.94,East,92,0.0,2.0,17,0.00,,,0.00,647,LWC V2.00 B727,2013-03-05 21:36:00,
2013-03-05 14:41:00,75.3,27.5,29.94,NNE,13,4.0,5.0,17,0.00,,,0.00,485,LWC V2.00 B727,2013-03-05 21:41:00,
2013-03-05 14:46:00,75.8,24.9,29.94,NW,311,1.0,4.0,15,0.00,,,0.00,548,LWC V2.00 B727,2013-03-05 21:46:00,
2013-03-05 14:51:00,76.0,23.4,29.93,NNE,16,4.0,4.0,14,0.00,,,0.00,499,LWC V2.00 B727,2013-03-05 21:51:00,
2013-03-05 14:56:00,76.4,25.3,29.93,SSW,206,5.0,5.0,15,0.00,,,0.00,441,LWC V2.00 B727,2013-03-05 21:56:00,
2013-03-05 15:01:00,76.1,26.6,29.93,West,270,4.0,7.0,16,0.00,,,0.00,438,LWC V2.00 B727,2013-03-05 22:01:00,
2013-03-05 15:06:00,76.1,26.6,29.93,WSW,251,2.0,7.0,16,0.00,,,0.00,399,LWC V2.00 B727,2013-03-05 22:06:00,
2013-03-05 15:11:00,75.7,26.3,29.93,West,265,1.0,7.0,16,0.00,,,0.00,360,LWC V2.00 B727,2013-03-05 22:11:00,
2013-03-05 15:16:00,75.3,26.0,29.93,WSW,256,0.0,7.0,16,0.00,,,0.00,341,LWC V2.00 B727,2013-03-05 22:16:00,
2013-03-05 15:21:00,75.0,25.8,29.93,SSW,205,6.0,7.0,16,0.00,,,0.00,329,LWC V2.00 B727,2013-03-05 22:21:00,
2013-03-05 15:26:00,74.8,27.1,29.93,SSW,212,7.0,8.0,17,0.00,,,0.00,294,LWC V2.00 B727,2013-03-05 22:26:00,
2013-03-05 15:31:00,74.6,25.4,29.93,WSW,248,2.0,6.0,16,0.00,,,0.00,309,LWC V2.00 B727,2013-03-05 22:31:00,
2013-03-05 15:36:00,74.7,25.5,29.93,SSW,207,3.0,8.0,16,0.00,,,0.00,285,LWC V2.00 B727,2013-03-05 22:36:00,
2013-03-05 15:41:00,74.7,27.0,29.93,SW,236,1.0,5.0,17,0.00,,,0.00,253,LWC V2.00 B727,2013-03-05 22:41:00,
2013-03-05 15:46:00,74.5,26.8,29.93,West,267,3.0,3.0,17,0.00,,,0.00,237,LWC V2.00 B727,2013-03-05 22:46:00,
2013-03-05 15:51:00,74.3,26.7,29.93,NW,311,0.0,3.0,17,0.00,,,0.00,232,LWC V2.00 B727,2013-03-05 22:51:00,
2013-03-05 15:56:00,74.3,25.2,29.93,SSW,211,7.0,7.0,16,0.00,,,0.00,237,LWC V2.00 B727,2013-03-05 22:56:00,
2013-03-05 16:01:00,74.3,25.2,29.93,SW,235,4.0,9.0,16,0.00,,,0.00,232,LWC V2.00 B727,2013-03-05 23:01:00,
2013-03-05 16:06:00,74.2,26.6,29.93,SW,216,5.0,7.0,17,0.00,,,0.00,218,LWC V2.00 B727,2013-03-05 23:06:00,
2013-03-05 16:11:00,74.2,26.6,29.93,WSW,243,2.0,7.0,17,0.00,,,0.00,209,LWC V2.00 B727,2013-03-05 23:11:00,
2013-03-05 16:16:00,73.9,26.3,29.92,SW,234,3.0,4.0,17,0.00,,,0.00,197,LWC V2.00 B727,2013-03-05 23:16:00,
2013-03-05 16:21:00,73.8,26.3,29.92,SW,222,4.0,4.0,17,0.00,,,0.00,181,LWC V2.00 B727,2013-03-05 23:21:00,
2013-03-05 16:26:00,73.6,26.1,29.92,SW,217,2.0,9.0,17,0.00,,,0.00,162,LWC V2.00 B727,2013-03-05 23:26:00,
2013-03-05 16:31:00,73.4,25.9,29.92,SW,224,4.0,6.0,17,0.00,,,0.00,149,LWC V2.00 B727,2013-03-05 23:31:00,
2013-03-05 16:36:00,73.4,25.9,29.92,SW,224,4.0,7.0,17,0.00,,,0.00,132,LWC V2.00 B727,2013-03-05 23:36:00,
2013-03-05 16:41:00,73.3,25.9,29.92,SSW,205,6.0,7.0,17,0.00,,,0.00,118,LWC V2.00 B727,2013-03-05 23:41:00,
2013-03-05 16:46:00,73.1,25.7,29.92,SW,232,0.0,5.0,17,0.00,,,0.00,105,LWC V2.00 B727,2013-03-05 23:46:00,
2013-03-05 16:51:00,72.9,25.5,29.91,SW,223,3.0,5.0,17,0.00,,,0.00,90,LWC V2.00 B727,2013-03-05 23:51:00,
2013-03-05 16:56:00,72.8,25.4,29.91,SW,227,5.0,7.0,17,0.00,,,0.00,81,LWC V2.00 B727,2013-03-05 23:56:00,
2013-03-05 17:01:00,72.4,25.1,29.91,WSW,258,0.0,4.0,17,0.00,,,0.00,74,LWC V2.00 B727,2013-03-06 00:01:00,
2013-03-05 17:06:00,72.1,24.9,29.91,WNW,285,3.0,4.0,17,0.00,,,0.00,69,LWC V2.00 B727,2013-03-06 00:06:00,
2013-03-05 17:11:00,71.8,26.0,29.91,West,268,1.0,5.0,18,0.00,,,0.00,65,LWC V2.00 B727,2013-03-06 00:11:00,
2013-03-05 17:16:00,71.6,25.9,29.91,West,264,1.0,4.0,18,0.00,,,0.00,69,LWC V2.00 B727,2013-03-06 00:16:00,
2013-03-05 17:21:00,71.6,25.9,29.91,West,263,0.0,1.0,18,0.00,,,0.00,69,LWC V2.00 B727,2013-03-06 00:21:00,
2013-03-05 17:26:00,71.5,25.8,29.91,West,263,0.0,0.0,18,0.00,,,0.00,65,LWC V2.00 B727,2013-03-06 00:26:00,
2013-03-05 17:31:00,71.4,27.0,29.91,West,263,0.0,0.0,19,0.00,,,0.00,58,LWC V2.00 B727,2013-03-06 00:31:00,
2013-03-05 17:36:00,71.1,25.4,29.90,West,263,0.0,0.0,18,0.00,,,0.00,53,LWC V2.00 B727,2013-03-06 00:36:00,
2013-03-05 17:41:00,71.0,25.4,29.90,West,263,0.0,0.0,18,0.00,,,0.00,40,LWC V2.00 B727,2013-03-06 00:41:00,
2013-03-05 17:46:00,70.9,27.8,29.91,West,263,0.0,0.0,20,0.00,,,0.00,33,LWC V2.00 B727,2013-03-06 00:46:00,
2013-03-05 17:51:00,70.4,27.4,29.92,West,263,0.0,1.0,20,0.00,,,0.00,28,LWC V2.00 B727,2013-03-06 00:51:00,
2013-03-05 17:56:00,69.9,29.3,29.92,WNW,298,2.0,5.0,22,0.00,,,0.00,21,LWC V2.00 B727,2013-03-06 00:56:00,
2013-03-05 18:01:00,69.2,29.8,29.92,WNW,292,0.0,1.0,23,0.00,,,0.00,16,LWC V2.00 B727,2013-03-06 01:01:00,
2013-03-05 18:06:00,68.8,29.5,29.92,WNW,291,0.0,1.0,23,0.00,,,0.00,11,LWC V2.00 B727,2013-03-06 01:06:00,
2013-03-05 18:11:00,68.4,30.2,29.93,WNW,291,0.0,0.0,24,0.00,,,0.00,9,LWC V2.00 B727,2013-03-06 01:11:00,
2013-03-05 18:16:00,68.2,30.0,29.93,WNW,291,0.0,2.0,24,0.00,,,0.00,5,LWC V2.00 B727,2013-03-06 01:16:00,
2013-03-05 18:21:00,67.9,30.8,29.93,WNW,291,2.0,2.0,25,0.00,,,0.00,0,LWC V2.00 B727,2013-03-06 01:21:00,
2013-03-05 18:26:00,67.6,30.5,29.93,WNW,291,0.0,0.0,25,0.00,,,0.00,0,LWC V2.00 B727,2013-03-06 01:26:00,
2013-03-05 18:31:00,66.8,30.8,29.93,WNW,291,0.0,1.0,26,0.00,,,0.00,0,LWC V2.00 B727,2013-03-06 01:31:00,
2013-03-05 18:36:00,66.3,30.4,29.93,NE,44,2.0,3.0,26,0.00,,,0.00,0,LWC V2.00 B727,2013-03-06 01:36:00,
2013-03-05 18:42:00,66.3,30.4,29.93,NE,56,0.0,1.0,26,0.00,,,0.00,0,LWC V2.00 B727,2013-03-06 01:42:00,
2013-03-05 18:47:00,66.0,31.1,29.93,NE,56,0.0,1.0,27,0.00,,,0.00,0,LWC V2.00 B727,2013-03-06 01:47:00,
2013-03-05 18:52:00,65.7,30.8,29.93,NE,56,0.0,1.0,27,0.00,,,0.00,0,LWC V2.00 B727,2013-03-06 01:52:00,
2013-03-05 18:57:00,64.9,31.0,29.93,NE,56,2.0,3.0,28,0.00,,,0.00,0,LWC V2.00 B727,2013-03-06 01:57:00,
2013-03-05 19:02:00,64.8,30.9,29.93,NNE,22,3.0,4.0,28,0.00,,,0.00,0,LWC V2.00 B727,2013-03-06 02:02:00,
2013-03-05 19:07:00,64.8,31.8,29.93,NNE,22,1.0,3.0,29,0.00,,,0.00,0,LWC V2.00 B727,2013-03-06 02:07:00,
2013-03-05 19:12:00,64.9,31.0,29.93,NNE,21,3.0,6.0,28,0.00,,,0.00,0,LWC V2.00 B727,2013-03-06 02:12:00,
2013-03-05 19:17:00,64.8,30.9,29.93,NNE,21,3.0,5.0,28,0.00,,,0.00,0,LWC V2.00 B727,2013-03-06 02:17:00,
2013-03-05 19:22:00,64.7,31.7,29.93,NNE,21,0.0,3.0,29,0.00,,,0.00,0,LWC V2.00 B727,2013-03-06 02:22:00,
2013-03-05 19:27:00,64.1,31.2,29.93,NNE,21,0.0,0.0,29,0.00,,,0.00,0,LWC V2.00 B727,2013-03-06 02:27:00,
2013-03-05 19:32:00,63.4,31.4,29.93,NNE,21,2.0,4.0,30,0.00,,,0.00,0,LWC V2.00 B727,2013-03-06 02:32:00,
2013-03-05 19:37:00,63.4,31.4,29.93,NNE,21,3.0,5.0,30,0.00,,,0.00,0,LWC V2.00 B727,2013-03-06 02:37:00,
2013-03-05 19:42:00,63.4,31.4,29.93,NNE,21,4.0,5.0,30,0.00,,,0.00,0,LWC V2.00 B727,2013-03-06 02:42:00,
2013-03-05 19:47:00,63.5,31.5,29.93,NNE,26,3.0,6.0,30,0.00,,,0.00,0,LWC V2.00 B727,2013-03-06 02:47:00,
2013-03-05 19:52:00,63.5,32.3,29.93,NNE,28,3.0,5.0,31,0.00,,,0.00,0,LWC V2.00 B727,2013-03-06 02:52:00,
2013-03-05 19:57:00,63.3,32.2,29.93,NNE,28,0.0,2.0,31,0.00,,,0.00,0,LWC V2.00 B727,2013-03-06 02:57:00,
2013-03-05 20:02:00,63.2,32.1,29.93,NNE,28,0.0,0.0,31,0.00,,,0.00,0,LWC V2.00 B727,2013-03-06 03:02:00,
2013-03-05 20:07:00,62.8,31.7,29.94,NNE,28,0.0,0.0,31,0.00,,,0.00,0,LWC V2.00 B727,2013-03-06 03:07:00,
2013-03-05 20:12:00,62.3,32.1,29.94,NNE,28,0.0,0.0,32,0.00,,,0.00,0,LWC V2.00 B727,2013-03-06 03:12:00,
2013-03-05 20:17:00,62.3,32.1,29.94,NNE,28,0.0,0.0,32,0.00,,,0.00,0,LWC V2.00 B727,2013-03-06 03:17:00,
2013-03-05 20:22:00,61.0,32.4,29.95,NNE,28,0.0,1.0,34,0.00,,,0.00,0,LWC V2.00 B727,2013-03-06 03:22:00,
2013-03-05 20:27:00,60.0,33.0,29.95,NNE,28,0.0,2.0,36,0.00,,,0.00,0,LWC V2.00 B727,2013-03-06 03:27:00,
2013-03-05 20:32:00,59.8,32.8,29.95,NNE,28,0.0,0.0,36,0.00,,,0.00,0,LWC V2.00 B727,2013-03-06 03:32:00,
2013-03-05 20:37:00,60.0,33.0,29.95,NNE,28,0.0,1.0,36,0.00,,,0.00,0,LWC V2.00 B727,2013-03-06 03:37:00,
2013-03-05 20:42:00,60.9,31.6,29.95,NNE,28,0.0,0.0,33,0.00,,,0.00,0,LWC V2.00 B727,2013-03-06 03:42:00,
2013-03-05 20:47:00,61.4,32.0,29.95,NNE,28,0.0,1.0,33,0.00,,,0.00,0,LWC V2.00 B727,2013-03-06 03:47:00,
2013-03-05 20:52:00,61.8,31.6,29.95,NNE,28,0.0,0.0,32,0.00,,,0.00,0,LWC V2.00 B727,2013-03-06 03:52:00,
2013-03-05 20:57:00,62.2,32.0,29.95,NNE,28,0.0,1.0,32,0.00,,,0.00,0,LWC V2.00 B727,2013-03-06 03:57:00,
2013-03-05 21:02:00,61.5,32.1,29.95,NNE,28,0.0,0.0,33,0.00,,,0.00,0,LWC V2.00 B727,2013-03-06 04:02:00,
2013-03-05 21:07:00,60.9,32.3,29.95,NNE,28,0.0,0.0,34,0.00,,,0.00,0,LWC V2.00 B727,2013-03-06 04:07:00,
2013-03-05 21:12:00,60.5,32.7,29.95,NNE,28,0.0,0.0,35,0.00,,,0.00,0,LWC V2.00 B727,2013-03-06 04:12:00,
2013-03-05 21:17:00,60.4,32.6,29.95,NNE,28,0.0,0.0,35,0.00,,,0.00,0,LWC V2.00 B727,2013-03-06 04:17:00,
2013-03-05 21:22:00,61.0,32.4,29.96,NNE,28,0.0,0.0,34,0.00,,,0.00,0,LWC V2.00 B727,2013-03-06 04:22:00,
2013-03-05 21:27:00,61.1,32.5,29.96,NNE,28,0.0,2.0,34,0.00,,,0.00,0,LWC V2.00 B727,2013-03-06 04:27:00,
2013-03-05 21:32:00,61.1,31.8,29.96,NNE,28,0.0,0.0,33,0.00,,,0.00,0,LWC V2.00 B727,2013-03-06 04:32:00,
2013-03-05 21:37:00,61.3,32.0,29.96,NNE,28,2.0,2.0,33,0.00,,,0.00,0,LWC V2.00 B727,2013-03-06 04:37:00,
2013-03-05 21:42:00,61.5,31.4,29.96,NNE,28,0.0,1.0,32,0.00,,,0.00,0,LWC V2.00 B727,2013-03-06 04:42:00,
2013-03-05 21:47:00,61.7,31.5,29.97,NNE,28,0.0,0.0,32,0.00,,,0.00,0,LWC V2.00 B727,2013-03-06 04:47:00,
2013-03-05 21:52:00,61.6,31.5,29.97,NNE,28,2.0,3.0,32,0.00,,,0.00,0,LWC V2.00 B727,2013-03-06 04:52:00,
2013-03-05 21:57:00,61.1,31.8,29.97,NNE,28,2.0,3.0,33,0.00,,,0.00,0,LWC V2.00 B727,2013-03-06 04:57:00,
2013-03-05 22:00:00,60.7,32.2,29.97,NNE,28,0.0,2.0,34,0.00,,,0.00,0,LWC V2.00 B727,2013-03-06 05:00:00,
2013-03-05 22:05:00,60.2,33.1,29.97,NNE,28,1.0,1.0,36,0.00,,,0.00,0,LWC V2.00 B727,2013-03-06 05:05:00,
2013-03-05 22:10:00,59.8,32.8,29.97,NNE,28,0.0,1.0,36,0.00,,,0.00,0,LWC V2.00 B727,2013-03-06 05:10:00,
2013-03-05 22:15:00,59.9,32.9,29.96,NNE,28,0.0,1.0,36,0.00,,,0.00,0,LWC V2.00 B727,2013-03-06 05:15:00,
2013-03-05 22:20:00,60.0,33.0,29.97,NNE,28,0.0,0.0,36,0.00,,,0.00,0,LWC V2.00 B727,2013-03-06 05:20:00,
2013-03-05 22:25:00,60.6,32.8,29.97,NNE,28,0.0,0.0,35,0.00,,,0.00,0,LWC V2.00 B727,2013-03-06 05:25:00,
2013-03-05 22:30:00,61.9,31.7,29.96,NNE,28,0.0,0.0,32,0.00,,,0.00,0,LWC V2.00 B727,2013-03-06 05:30:00,
2013-03-05 22:35:00,61.6,32.2,29.96,NNE,28,0.0,0.0,33,0.00,,,0.00,0,LWC V2.00 B727,2013-03-06 05:35:00,
2013-03-05 22:40:00,61.6,31.5,29.96,NNE,28,0.0,0.0,32,0.00,,,0.00,0,LWC V2.00 B727,2013-03-06 05:40:00,
2013-03-05 22:45:00,61.6,31.5,29.96,NNE,28,0.0,0.0,32,0.00,,,0.00,0,LWC V2.00 B727,2013-03-06 05:45:00,
2013-03-05 22:50:00,61.5,31.4,29.96,NNE,28,0.0,1.0,32,0.00,,,0.00,0,LWC V2.00 B727,2013-03-06 05:50:00,
2013-03-05 22:55:00,61.7,31.5,29.96,NNE,28,0.0,1.0,32,0.00,,,0.00,0,LWC V2.00 B727,2013-03-06 05:55:00,
2013-03-05 23:00:00,61.1,31.8,29.96,NNE,28,2.0,3.0,33,0.00,,,0.00,0,LWC V2.00 B727,2013-03-06 06:00:00,
2013-03-05 23:05:00,60.4,32.6,29.96,NNE,28,2.0,3.0,35,0.00,,,0.00,0,LWC V2.00 B727,2013-03-06 06:05:00,
2013-03-05 23:10:00,60.2,32.4,29.96,NNE,28,1.0,2.0,35,0.00,,,0.00,0,LWC V2.00 B727,2013-03-06 06:10:00,
2013-03-05 23:15:00,60.5,32.0,29.95,NNE,28,0.0,1.0,34,0.00,,,0.00,0,LWC V2.00 B727,2013-03-06 06:15:00,
2013-03-05 23:20:00,60.9,31.6,29.95,NNE,28,0.0,1.0,33,0.00,,,0.00,0,LWC V2.00 B727,2013-03-06 06:20:00,
2013-03-05 23:25:00,60.6,32.1,29.95,NNE,28,2.0,3.0,34,0.00,,,0.00,0,LWC V2.00 B727,2013-03-06 06:25:00,
2013-03-05 23:30:00,60.2,32.4,29.95,NNE,28,2.0,3.0,35,0.00,,,0.00,0,LWC V2.00 B727,2013-03-06 06:30:00,
2013-03-05 23:35:00,59.9,32.2,29.95,NNE,28,0.0,1.0,35,0.00,,,0.00,0,LWC V2.00 B727,2013-03-06 06:35:00,
2013-03-05 23:40:00,59.6,31.9,29.95,NNE,28,0.0,1.0,35,0.00,,,0.00,0,LWC V2.00 B727,2013-03-06 06:40:00,
2013-03-05 23:45:00,59.7,32.0,29.95,NNE,28,0.0,0.0,35,0.00,,,0.00,0,LWC V2.00 B727,2013-03-06 06:45:00,
2013-03-05 23:50:00,59.7,32.0,29.94,NNE,28,0.0,0.0,35,0.00,,,0.00,0,LWC V2.00 B727,2013-03-06 06:50:00,
2013-03-05 23:55:00,59.6,31.9,29.94,NNE,28,0.0,1.0,35,0.00,,,0.00,0,LWC V2.00 B727,2013-03-06 06:55:00,